createdAt,value
2023-03-20T00:02:25.791Z,81.96
2023-03-20T00:04:54.540Z,81.74
2023-03-20T00:07:22.876Z,81.29
2023-03-20T00:09:51.966Z,80.74
2023-03-20T00:12:24.811Z,80.77
2023-03-20T00:14:53.455Z,80.84
2023-03-20T00:17:22.610Z,80.63
2023-03-20T00:19:51.365Z,80.57
2023-03-20T00:22:19.666Z,81.73
2023-03-20T00:24:48.460Z,81.48
2023-03-20T00:27:19.005Z,81.79
2023-03-20T00:29:47.504Z,81.48
2023-03-20T00:32:16.444Z,80.42
2023-03-20T00:34:44.968Z,79.69
2023-03-20T00:37:13.571Z,79.87
2023-03-20T00:39:43.173Z,79.61
2023-03-20T00:42:23.202Z,79.11
2023-03-20T00:44:57.000Z,79.49
2023-03-20T00:47:26.796Z,79.64
2023-03-20T00:49:56.826Z,79.51
2023-03-20T00:52:25.863Z,78.66
2023-03-20T00:54:54.238Z,78.69
2023-03-20T00:57:48.578Z,78.65
2023-03-20T01:00:46.931Z,78.36
2023-03-20T01:03:21.603Z,77.69
2023-03-20T01:05:51.197Z,78.38
2023-03-20T01:08:25.816Z,77.69
2023-03-20T01:10:59.687Z,77.75
2023-03-20T01:13:31.265Z,78.13
2023-03-20T01:16:00.564Z,76.87
2023-03-20T01:18:29.369Z,76.29
2023-03-20T01:20:57.652Z,76.18
2023-03-20T01:23:27.575Z,75.80
2023-03-20T01:25:55.944Z,76.60
2023-03-20T01:28:25.728Z,76.28
2023-03-20T01:30:54.156Z,76.00
2023-03-20T01:33:25.066Z,75.45
2023-03-20T01:35:53.779Z,76.48
2023-03-20T01:38:25.400Z,75.27
2023-03-20T01:41:00.314Z,74.75
2023-03-20T01:43:30.097Z,74.03
2023-03-20T01:46:10.708Z,73.72
2023-03-20T01:48:54.523Z,73.41
2023-03-20T01:51:25.255Z,73.23
2023-03-20T01:54:00.427Z,72.44
2023-03-20T01:56:31.921Z,72.58
2023-03-20T01:59:07.931Z,73.10
2023-03-20T02:01:38.292Z,72.65
2023-03-20T02:04:07.903Z,72.13
2023-03-20T02:06:38.287Z,72.09
2023-03-20T02:09:06.649Z,71.04
2023-03-20T02:11:36.347Z,70.60
2023-03-20T02:14:06.329Z,71.33
2023-03-20T02:16:34.721Z,71.33
2023-03-20T02:19:03.800Z,71.20
2023-03-20T02:22:08.943Z,71.05
2023-03-20T02:24:37.244Z,71.15
2023-03-20T02:27:05.531Z,71.90
2023-03-20T02:30:10.865Z,71.20
2023-03-20T02:33:02.619Z,70.00
2023-03-20T02:35:58.724Z,70.19
2023-03-20T02:38:35.716Z,69.00
2023-03-20T02:41:16.784Z,70.18
2023-03-20T02:43:57.174Z,69.78
2023-03-20T02:46:47.388Z,68.07
2023-03-20T02:49:24.563Z,68.41
2023-03-20T02:52:18.213Z,67.88
2023-03-20T02:55:03.470Z,66.53
2023-03-20T02:57:44.075Z,67.46
2023-03-20T03:00:27.560Z,67.09
2023-03-20T03:03:18.576Z,67.40
2023-03-20T03:05:55.484Z,66.10
2023-03-20T03:08:29.603Z,66.96
2023-03-20T03:11:05.329Z,66.62
2023-03-20T03:13:39.000Z,67.27
2023-03-20T03:16:39.431Z,65.84
2023-03-20T03:19:16.700Z,65.13
2023-03-20T03:21:46.786Z,62.21
2023-03-20T03:24:41.152Z,64.11
2023-03-20T03:27:19.197Z,63.88
2023-03-20T03:29:52.438Z,62.75
2023-03-20T03:32:44.802Z,63.46
2023-03-20T03:35:18.751Z,63.58
2023-03-20T03:38:19.278Z,65.43
2023-03-20T03:41:00.424Z,63.02
2023-03-20T03:43:44.234Z,62.04
2023-03-20T03:46:24.505Z,62.50
2023-03-20T03:48:57.743Z,65.05
2023-03-20T03:51:30.597Z,61.36
2023-03-20T03:54:07.896Z,63.56
2023-03-20T03:56:39.908Z,62.04
2023-03-20T03:59:32.222Z,61.19
2023-03-20T04:02:02.391Z,60.22
2023-03-20T04:04:34.029Z,62.71
2023-03-20T04:07:02.723Z,61.20
2023-03-20T04:09:31.331Z,60.52
2023-03-20T04:11:59.689Z,59.16
2023-03-20T04:14:28.394Z,61.03
2023-03-20T04:16:56.669Z,59.87
2023-03-20T04:19:24.959Z,55.83
2023-03-20T04:21:53.271Z,57.51
2023-03-20T04:24:21.577Z,57.65
2023-03-20T04:26:49.952Z,56.75
2023-03-20T04:29:18.374Z,54.81
2023-03-20T04:31:46.993Z,58.18
2023-03-20T04:34:15.419Z,60.42
2023-03-20T04:36:43.729Z,58.00
2023-03-20T04:39:12.243Z,54.25
2023-03-20T04:41:40.685Z,53.57
2023-03-20T04:44:09.108Z,56.80
2023-03-20T04:46:37.411Z,56.38
2023-03-20T04:49:05.730Z,56.35
2023-03-20T04:51:34.076Z,53.39
2023-03-20T04:54:02.351Z,54.89
2023-03-20T04:56:30.652Z,53.53
2023-03-20T04:58:58.948Z,51.40
2023-03-20T05:01:27.280Z,51.82
2023-03-20T05:04:01.561Z,52.88
2023-03-20T05:06:31.192Z,54.78
2023-03-20T05:09:00.511Z,51.86
2023-03-20T05:11:30.013Z,53.57
2023-03-20T05:13:58.327Z,50.54
2023-03-20T05:16:26.990Z,49.59
2023-03-20T05:18:55.346Z,53.69
2023-03-20T05:21:23.664Z,56.36
2023-03-20T05:23:52.241Z,54.33
2023-03-20T05:26:20.529Z,48.78
2023-03-20T05:28:50.984Z,48.88
2023-03-20T05:31:19.340Z,53.40
2023-03-20T05:33:47.638Z,50.10
2023-03-20T05:36:15.949Z,49.93
2023-03-20T05:38:44.554Z,52.29
2023-03-20T05:41:12.857Z,50.78
2023-03-20T05:43:41.157Z,52.27
2023-03-20T05:46:09.650Z,48.86
2023-03-20T05:48:38.034Z,50.72
2023-03-20T05:51:07.239Z,50.94
2023-03-20T05:53:35.629Z,49.57
2023-03-20T05:56:04.289Z,46.39
2023-03-20T05:58:32.860Z,46.99
2023-03-20T06:01:01.534Z,49.67
2023-03-20T06:03:29.973Z,46.52
2023-03-20T06:05:58.640Z,47.79
2023-03-20T06:08:27.086Z,49.28
2023-03-20T06:10:55.512Z,47.37
2023-03-20T06:13:23.983Z,49.44
2023-03-20T06:15:52.297Z,46.73
2023-03-20T06:18:20.932Z,48.64
2023-03-20T06:20:54.711Z,45.67
2023-03-20T06:23:23.151Z,46.29
2023-03-20T06:25:51.707Z,51.34
2023-03-20T06:28:20.423Z,45.83
2023-03-20T06:30:48.787Z,49.01
2023-03-20T06:33:17.292Z,46.08
2023-03-20T06:35:47.713Z,47.23
2023-03-20T06:38:16.242Z,46.78
2023-03-20T06:40:46.113Z,47.97
2023-03-20T06:43:14.413Z,48.73
2023-03-20T06:45:42.922Z,51.58
2023-03-20T06:48:12.188Z,49.69
2023-03-20T06:50:40.469Z,47.65
2023-03-20T06:53:08.756Z,51.98
2023-03-20T06:55:38.487Z,49.28
2023-03-20T06:58:06.923Z,48.56
2023-03-20T07:00:35.440Z,48.87
2023-03-20T07:03:04.653Z,47.05
2023-03-20T07:05:33.776Z,50.24
2023-03-20T07:08:02.329Z,47.66
2023-03-20T07:10:30.640Z,45.83
2023-03-20T07:12:59.001Z,49.88
2023-03-20T07:15:28.264Z,49.75
2023-03-20T07:17:56.905Z,49.76
2023-03-20T07:20:25.464Z,49.10
2023-03-20T07:22:53.824Z,48.26
2023-03-20T07:25:35.400Z,49.02
2023-03-20T07:28:03.960Z,50.17
2023-03-20T07:30:33.428Z,48.78
2023-03-20T07:33:01.749Z,49.74
2023-03-20T07:35:30.315Z,50.95
2023-03-20T07:37:58.612Z,48.49
2023-03-20T07:40:27.183Z,48.22
2023-03-20T07:42:55.579Z,49.33
2023-03-20T07:45:24.172Z,49.40
2023-03-20T07:47:52.509Z,47.73
2023-03-20T07:50:20.932Z,44.75
2023-03-20T07:52:50.380Z,46.89
2023-03-20T07:55:19.381Z,46.55
2023-03-20T07:57:50.666Z,47.54
2023-03-20T08:00:20.130Z,49.59
2023-03-20T08:02:48.653Z,46.24
2023-03-20T08:05:17.811Z,46.56
2023-03-20T08:07:47.142Z,48.42
2023-03-20T08:10:15.600Z,48.33
2023-03-20T08:12:44.402Z,50.50
2023-03-20T08:15:13.052Z,52.36
2023-03-20T08:17:45.612Z,51.39
2023-03-20T08:20:15.850Z,48.60
2023-03-20T08:22:46.246Z,49.28
2023-03-20T08:25:15.377Z,49.28
2023-03-20T08:27:43.882Z,47.92
2023-03-20T08:30:14.014Z,50.25
2023-03-20T08:32:43.038Z,48.38
2023-03-20T08:35:25.784Z,47.20
2023-03-20T08:38:00.445Z,47.79
2023-03-20T08:40:29.094Z,49.03
2023-03-20T08:42:57.614Z,50.08
2023-03-20T08:45:27.156Z,48.14
2023-03-20T08:47:56.017Z,48.52
2023-03-20T08:50:24.545Z,49.54
2023-03-20T08:52:52.937Z,49.10
2023-03-20T08:55:21.430Z,49.69
2023-03-20T08:57:49.890Z,48.95
2023-03-20T09:00:20.159Z,49.22
2023-03-20T09:02:48.574Z,49.32
2023-03-20T09:05:17.062Z,49.54
2023-03-20T09:07:45.882Z,47.52
2023-03-20T09:10:14.359Z,48.20
2023-03-20T09:12:42.688Z,49.04
2023-03-20T09:15:11.629Z,52.17
2023-03-20T09:17:40.122Z,51.97
2023-03-20T09:20:09.271Z,49.04
2023-03-20T09:22:37.643Z,48.74
2023-03-20T09:25:07.181Z,48.80
2023-03-20T09:27:35.557Z,49.60
2023-03-20T09:30:03.876Z,48.80
2023-03-20T09:32:32.182Z,48.04
2023-03-20T09:35:00.613Z,48.78
2023-03-20T09:37:29.256Z,50.43
2023-03-20T09:39:57.811Z,52.48
2023-03-20T09:42:50.878Z,49.55
2023-03-20T09:45:38.650Z,49.99
2023-03-20T09:48:09.753Z,52.27
2023-03-20T09:50:41.285Z,50.81
2023-03-20T09:53:43.642Z,48.73
2023-03-20T09:56:22.900Z,50.97
2023-03-20T09:59:00.245Z,50.78
2023-03-20T10:01:34.743Z,51.24
2023-03-20T10:04:13.558Z,50.03
2023-03-20T10:06:42.220Z,50.80
2023-03-20T10:09:32.764Z,50.91
2023-03-20T10:12:05.008Z,51.69
2023-03-20T10:14:39.048Z,52.16
2023-03-20T10:17:16.378Z,52.58
2023-03-20T10:19:57.428Z,52.04
2023-03-20T10:22:34.306Z,50.14
2023-03-20T10:25:14.566Z,49.08
2023-03-20T10:28:01.873Z,49.49
2023-03-20T10:31:07.430Z,47.26
2023-03-20T10:33:53.959Z,46.29
2023-03-20T10:36:22.614Z,45.82
2023-03-20T10:38:50.875Z,46.28
2023-03-20T10:41:23.246Z,45.47
2023-03-20T10:43:54.095Z,45.29
2023-03-20T10:46:30.684Z,46.30
2023-03-20T10:49:09.712Z,46.48
2023-03-20T10:51:49.362Z,46.01
2023-03-20T10:54:30.250Z,47.15
2023-03-20T10:57:01.849Z,48.06
2023-03-20T10:59:36.364Z,47.72
2023-03-20T11:02:15.758Z,49.14
2023-03-20T11:04:44.596Z,50.79
2023-03-20T11:07:49.155Z,51.60
2023-03-20T11:10:18.264Z,51.00
2023-03-20T11:12:49.219Z,51.19
2023-03-20T11:15:23.953Z,51.88
2023-03-20T11:17:56.996Z,53.51
2023-03-20T11:20:27.153Z,53.61
2023-03-20T11:23:05.877Z,53.67
2023-03-20T11:25:40.829Z,54.41
2023-03-20T11:28:23.038Z,54.04
2023-03-20T11:31:04.625Z,55.18
2023-03-20T11:33:38.827Z,56.07
2023-03-20T11:36:14.274Z,55.72
2023-03-20T11:38:47.462Z,56.34
2023-03-20T11:41:23.831Z,57.08
2023-03-20T11:43:52.246Z,57.22
2023-03-20T11:46:26.291Z,58.50
2023-03-20T11:49:08.417Z,58.80
2023-03-20T11:51:39.105Z,59.43
2023-03-20T11:54:15.927Z,60.95
2023-03-20T11:56:58.332Z,60.34
2023-03-20T11:59:37.031Z,61.81
2023-03-20T12:02:20.564Z,61.25
2023-03-20T12:04:48.944Z,62.17
2023-03-20T12:07:29.168Z,61.82
2023-03-20T12:10:08.305Z,61.76
2023-03-20T12:12:48.739Z,61.71
2023-03-20T12:15:35.236Z,61.80
2023-03-20T12:18:34.070Z,62.40
2023-03-20T12:21:12.503Z,62.13
2023-03-20T12:23:54.435Z,61.79
2023-03-20T12:27:00.107Z,61.19
2023-03-20T12:29:44.809Z,60.22
2023-03-20T12:32:33.753Z,60.47
2023-03-20T12:35:18.962Z,60.59
2023-03-20T12:37:47.426Z,60.71
2023-03-20T12:40:22.864Z,61.71
2023-03-20T12:43:06.885Z,61.38
2023-03-20T12:45:44.721Z,62.22
2023-03-20T12:48:36.624Z,63.34
2023-03-20T12:51:08.967Z,64.43
2023-03-20T12:53:46.061Z,64.47
2023-03-20T12:56:25.550Z,65.35
2023-03-20T12:59:05.634Z,66.35
2023-03-20T13:01:56.667Z,67.32
2023-03-20T13:04:42.912Z,68.67
2023-03-20T13:07:25.091Z,69.96
2023-03-20T13:10:10.176Z,70.87
2023-03-20T13:12:53.356Z,71.29
2023-03-20T13:15:43.224Z,73.13
2023-03-20T13:18:21.440Z,73.11
2023-03-20T13:21:05.110Z,73.62
2023-03-20T13:23:52.967Z,73.40
2023-03-20T13:26:39.840Z,73.27
2023-03-20T13:29:08.126Z,73.26
2023-03-20T13:31:45.427Z,73.22
2023-03-20T13:34:54.364Z,73.46
2023-03-20T13:37:34.354Z,74.19
2023-03-20T13:40:02.637Z,75.09
2023-03-20T13:42:39.109Z,76.65
2023-03-20T13:45:23.606Z,76.27
2023-03-20T13:47:53.784Z,75.95
2023-03-20T13:50:53.650Z,74.11
2023-03-20T13:53:31.583Z,72.98
2023-03-20T13:56:26.207Z,72.30
2023-03-20T13:59:04.628Z,71.99
2023-03-20T14:01:44.266Z,72.42
2023-03-20T14:04:20.048Z,73.80
2023-03-20T14:06:58.830Z,73.75
2023-03-20T14:09:33.819Z,72.91
2023-03-20T14:12:12.104Z,73.00
2023-03-20T14:14:51.148Z,71.91
2023-03-20T14:17:24.860Z,72.50
2023-03-20T14:19:55.330Z,71.52
2023-03-20T14:22:35.741Z,71.63
2023-03-20T14:25:18.648Z,71.02
2023-03-20T14:28:14.537Z,70.02
2023-03-20T14:30:53.897Z,69.17
2023-03-20T14:33:23.516Z,68.85
2023-03-20T14:36:12.155Z,69.12
2023-03-20T14:39:03.783Z,70.09
2023-03-20T14:41:55.797Z,70.01
2023-03-20T14:44:26.728Z,71.38
2023-03-20T14:46:54.972Z,72.37
2023-03-20T14:49:37.742Z,73.11
2023-03-20T14:52:34.865Z,73.61
2023-03-20T14:55:21.798Z,74.25
2023-03-20T14:57:56.637Z,75.14
2023-03-20T15:00:29.471Z,75.59
2023-03-20T15:03:12.810Z,74.89
2023-03-20T15:05:41.950Z,72.91
2023-03-20T15:08:16.900Z,74.09
2023-03-20T15:10:54.535Z,73.64
2023-03-20T15:13:25.666Z,73.00
2023-03-20T15:16:05.586Z,72.56
2023-03-20T15:18:39.378Z,70.85
2023-03-20T15:21:19.604Z,70.94
2023-03-20T15:23:49.368Z,70.63
2023-03-20T15:26:21.149Z,70.71
2023-03-20T15:28:50.393Z,70.78
2023-03-20T15:31:39.993Z,72.14
2023-03-20T15:34:14.319Z,73.16
2023-03-20T15:36:42.772Z,73.02
2023-03-20T15:39:20.926Z,75.30
2023-03-20T15:41:54.121Z,74.17
2023-03-20T15:44:24.062Z,71.99
2023-03-20T15:46:56.547Z,71.29
2023-03-20T15:49:26.053Z,72.34
2023-03-20T15:51:57.232Z,72.40
2023-03-20T15:54:26.194Z,73.27
2023-03-20T15:56:58.499Z,73.14
2023-03-20T15:59:31.461Z,73.75
2023-03-20T16:02:02.019Z,73.92
2023-03-20T16:04:30.535Z,73.52
2023-03-20T16:07:01.700Z,73.42
2023-03-20T16:09:30.661Z,74.87
2023-03-20T16:12:00.354Z,75.38
2023-03-20T16:14:32.586Z,74.63
2023-03-20T16:17:04.671Z,74.70
2023-03-20T16:19:33.130Z,73.37
2023-03-20T16:22:11.275Z,72.72
2023-03-20T16:24:41.678Z,72.76
2023-03-20T16:27:11.744Z,72.03
2023-03-20T16:29:44.900Z,72.34
2023-03-20T16:32:33.968Z,72.34
2023-03-20T16:35:07.461Z,74.66
2023-03-20T16:37:44.701Z,74.43
2023-03-20T16:40:19.902Z,74.30
2023-03-20T16:42:48.844Z,74.61
2023-03-20T16:45:26.891Z,73.57
2023-03-20T16:48:12.185Z,76.66
2023-03-20T16:50:42.913Z,77.41
2023-03-20T16:53:18.272Z,79.60
2023-03-20T16:55:52.633Z,80.03
2023-03-20T16:58:28.673Z,80.97
2023-03-20T17:01:07.248Z,79.20
2023-03-20T17:03:49.166Z,78.96
2023-03-20T17:06:21.750Z,80.49
2023-03-20T17:08:55.769Z,79.33
2023-03-20T17:11:38.917Z,79.18
2023-03-20T17:14:07.564Z,80.45
2023-03-20T17:16:37.510Z,79.96
2023-03-20T17:19:11.980Z,77.18
2023-03-20T17:21:40.421Z,78.52
2023-03-20T17:24:08.958Z,78.76
2023-03-20T17:26:37.358Z,79.87
2023-03-20T17:29:06.834Z,77.36
2023-03-20T17:31:35.178Z,76.48
2023-03-20T17:34:03.596Z,76.17
2023-03-20T17:36:34.745Z,76.21
2023-03-20T17:39:03.391Z,77.00
2023-03-20T17:41:31.764Z,76.66
2023-03-20T17:44:00.099Z,77.46
2023-03-20T17:46:36.082Z,78.45
2023-03-20T17:49:16.926Z,79.09
2023-03-20T17:51:45.403Z,78.65
2023-03-20T17:54:13.704Z,77.77
2023-03-20T17:56:43.189Z,79.65
2023-03-20T17:59:15.307Z,81.10
2023-03-20T18:01:44.068Z,80.30
2023-03-20T18:04:12.480Z,80.77
2023-03-20T18:06:40.859Z,80.36
2023-03-20T18:09:14.247Z,80.45
2023-03-20T18:11:42.642Z,79.98
2023-03-20T18:14:13.159Z,79.76
2023-03-20T18:16:41.670Z,78.00
2023-03-20T18:19:30.801Z,77.37
2023-03-20T18:21:59.957Z,76.17
2023-03-20T18:24:28.720Z,75.70
2023-03-20T18:26:57.582Z,77.17
2023-03-20T18:29:26.126Z,76.76
2023-03-20T18:31:54.830Z,76.58
2023-03-20T18:34:23.122Z,75.87
2023-03-20T18:36:52.106Z,74.54
2023-03-20T18:39:23.197Z,71.32
2023-03-20T18:41:51.982Z,72.48
2023-03-20T18:44:20.291Z,73.55
2023-03-20T18:46:48.747Z,72.81
2023-03-20T18:49:18.732Z,73.98
2023-03-20T18:51:47.927Z,75.75
2023-03-20T18:54:16.363Z,76.93
2023-03-20T18:56:44.730Z,76.94
2023-03-20T18:59:14.236Z,77.64
2023-03-20T19:01:42.659Z,77.39
2023-03-20T19:04:11.176Z,78.14
2023-03-20T19:06:39.627Z,77.42
2023-03-20T19:09:09.106Z,76.47
2023-03-20T19:11:37.410Z,75.83
2023-03-20T19:14:05.741Z,75.84
2023-03-20T19:16:38.789Z,75.45
2023-03-20T19:19:08.845Z,75.30
2023-03-20T19:21:37.703Z,75.40
2023-03-20T19:24:07.675Z,74.98
2023-03-20T19:26:38.309Z,74.20
2023-03-20T19:29:09.400Z,73.92
2023-03-20T19:31:38.407Z,72.72
2023-03-20T19:34:07.612Z,72.92
2023-03-20T19:36:38.585Z,74.05
2023-03-20T19:39:12.135Z,75.43
2023-03-20T19:41:40.572Z,76.78
2023-03-20T19:44:09.467Z,77.22
2023-03-20T19:46:41.097Z,78.07
2023-03-20T19:49:20.765Z,77.78
2023-03-20T19:51:50.684Z,78.29
2023-03-20T19:54:19.069Z,79.06
2023-03-20T19:56:47.501Z,79.15
2023-03-20T19:59:16.861Z,78.81
2023-03-20T20:01:46.500Z,78.85
2023-03-20T20:04:15.791Z,79.20
2023-03-20T20:06:47.266Z,80.24
2023-03-20T20:09:16.241Z,80.30
2023-03-20T20:11:45.033Z,81.82
2023-03-20T20:14:14.852Z,82.33
2023-03-20T20:16:44.183Z,82.55
2023-03-20T20:19:13.278Z,82.57
2023-03-20T20:24:30.120Z,80.42
2023-03-20T20:27:26.895Z,79.51
2023-03-20T20:29:52.167Z,79.87
2023-03-20T20:32:23.895Z,79.83
2023-03-20T20:40:33.340Z,77.06
2023-03-20T20:43:02.925Z,80.84
2023-03-20T20:45:32.438Z,82.80
2023-03-20T20:48:00.908Z,83.07
2023-03-20T20:50:31.647Z,84.11
2023-03-20T20:53:00.446Z,83.57
2023-03-20T20:55:28.803Z,81.52
2023-03-20T20:57:57.457Z,81.42
2023-03-20T21:00:41.020Z,81.56
2023-03-20T21:03:15.471Z,81.47
2023-03-20T21:05:44.305Z,81.55
2023-03-20T21:08:14.889Z,82.44
2023-03-20T21:10:45.533Z,81.87
2023-03-20T21:13:14.076Z,79.03
2023-03-20T21:15:44.185Z,78.47
2023-03-20T21:18:12.650Z,80.68
2023-03-20T21:20:41.036Z,80.31
2023-03-20T21:23:09.357Z,80.99
2023-03-20T21:25:42.074Z,80.74
2023-03-20T21:28:11.682Z,82.12
2023-03-20T21:30:59.984Z,81.32
2023-03-20T21:33:33.157Z,81.97
2023-03-20T21:36:01.623Z,81.85
2023-03-20T21:39:01.913Z,81.64
2023-03-20T21:41:19.084Z,82.45
2023-03-20T21:43:48.323Z,82.29
2023-03-20T22:01:23.152Z,81.60
2023-03-20T22:30:12.372Z,85.31
2023-03-20T22:41:43.129Z,84.85
2023-03-20T22:46:44.766Z,83.69
2023-03-20T22:49:10.790Z,83.82
2023-03-20T22:51:52.243Z,84.33
2023-03-20T22:54:27.508Z,84.63
2023-03-20T22:56:56.451Z,86.31
2023-03-20T22:59:24.832Z,86.76
2023-03-20T23:01:53.156Z,86.03
2023-03-20T23:04:21.717Z,85.85
2023-03-20T23:06:50.114Z,85.49
2023-03-20T23:09:18.844Z,85.74
2023-03-20T23:11:47.223Z,86.77
2023-03-20T23:14:21.335Z,86.95
2023-03-20T23:16:51.790Z,87.71
2023-03-20T23:19:20.272Z,86.77
2023-03-20T23:21:48.678Z,86.54
2023-03-20T23:24:17.892Z,86.93
2023-03-20T23:26:46.354Z,87.04
2023-03-20T23:29:14.746Z,86.82
2023-03-20T23:31:43.121Z,86.90
2023-03-20T23:34:11.602Z,86.79
2023-03-20T23:36:40.083Z,86.43
2023-03-20T23:39:10.485Z,86.66
2023-03-20T23:44:28.310Z,86.35
2023-03-20T23:46:56.718Z,86.40
2023-03-20T23:49:25.242Z,86.41
2023-03-20T23:51:54.075Z,87.18
2023-03-20T23:54:22.619Z,87.12
2023-03-20T23:56:50.972Z,86.41
2023-03-20T23:59:22.485Z,86.16
